createdAt,value
2018-02-01T00:00:05.807Z,5.98
2018-02-01T00:01:05.861Z,6.06
2018-02-01T00:02:05.806Z,5.93
2018-02-01T00:03:05.847Z,5.98
2018-02-01T00:04:05.801Z,6.00
2018-02-01T00:05:05.798Z,5.96
2018-02-01T00:06:05.796Z,6.00
2018-02-01T00:07:05.829Z,6.03
2018-02-01T00:08:05.789Z,6.01
2018-02-01T00:09:05.787Z,6.00
2018-02-01T00:10:05.785Z,6.04
2018-02-01T00:11:06.534Z,5.96
2018-02-01T00:12:05.837Z,6.00
2018-02-01T00:13:05.821Z,6.01
2018-02-01T00:14:05.779Z,6.04
2018-02-01T00:15:05.775Z,6.01
2018-02-01T00:16:05.780Z,6.03
2018-02-01T00:17:05.769Z,6.01
2018-02-01T00:18:05.810Z,6.00
2018-02-01T00:19:05.763Z,6.03
2018-02-01T00:20:05.762Z,6.06
2018-02-01T00:21:05.761Z,6.03
2018-02-01T00:22:05.763Z,6.06
2018-02-01T00:23:05.793Z,6.10
2018-02-01T00:24:05.751Z,6.06
2018-02-01T00:25:05.753Z,5.95
2018-02-01T00:26:05.748Z,6.07
2018-02-01T00:27:05.746Z,6.10
2018-02-01T00:28:05.803Z,6.01
2018-02-01T00:29:05.740Z,6.11
2018-02-01T00:30:05.740Z,6.07
2018-02-01T00:31:05.736Z,6.06
2018-02-01T00:32:05.788Z,6.01
2018-02-01T00:33:05.732Z,6.14
2018-02-01T00:34:05.771Z,6.11
2018-02-01T00:35:05.728Z,6.11
2018-02-01T00:36:05.725Z,6.06
2018-02-01T00:37:05.722Z,6.09
2018-02-01T00:38:05.726Z,6.10
2018-02-01T00:39:05.756Z,6.07
2018-02-01T00:40:05.715Z,6.09
2018-02-01T00:41:05.714Z,6.04
2018-02-01T00:42:05.713Z,6.03
2018-02-01T00:43:05.767Z,5.92
2018-02-01T00:44:05.706Z,6.03
2018-02-01T00:45:05.710Z,6.04
2018-02-01T00:46:05.703Z,6.01
2018-02-01T00:47:05.737Z,5.98
2018-02-01T00:48:05.698Z,6.01
2018-02-01T00:49:05.738Z,6.00
2018-02-01T00:50:05.695Z,5.98
2018-02-01T00:51:05.692Z,5.91
2018-02-01T00:52:05.690Z,5.91
2018-02-01T00:53:05.687Z,5.92
2018-02-01T00:54:05.742Z,5.91
2018-02-01T00:55:05.683Z,5.78
2018-02-01T00:56:05.681Z,5.83
2018-02-01T00:57:05.765Z,5.86
2018-02-01T00:58:05.678Z,5.78
2018-02-01T00:59:05.680Z,5.78
2018-02-01T01:00:05.732Z,5.85
2018-02-01T01:01:05.668Z,5.77
2018-02-01T01:02:06.625Z,5.67
2018-02-01T01:03:05.664Z,5.75
2018-02-01T01:04:05.860Z,5.73
2018-02-01T01:05:05.659Z,5.73
2018-02-01T01:06:05.661Z,5.73
2018-02-01T01:07:05.653Z,5.66
2018-02-01T01:08:05.652Z,5.74
2018-02-01T01:09:05.706Z,5.73
2018-02-01T01:10:05.651Z,5.73
2018-02-01T01:11:05.645Z,5.56
2018-02-01T01:12:05.684Z,5.71
2018-02-01T01:13:05.935Z,5.68
2018-02-01T01:14:06.054Z,5.70
2018-02-01T01:15:05.675Z,5.67
2018-02-01T01:16:06.542Z,5.66
2018-02-01T01:17:05.632Z,5.66
2018-02-01T01:18:05.630Z,5.59
2018-02-01T01:19:05.626Z,5.63
2018-02-01T01:20:05.668Z,5.63
2018-02-01T01:21:05.622Z,5.59
2018-02-01T01:22:05.620Z,5.60
2018-02-01T01:23:05.614Z,5.59
2018-02-01T01:24:05.616Z,5.56
2018-02-01T01:25:05.654Z,5.59
2018-02-01T01:26:05.607Z,5.64
2018-02-01T01:27:05.605Z,5.63
2018-02-01T01:28:05.613Z,5.59
2018-02-01T01:29:05.600Z,5.66
2018-02-01T01:30:05.644Z,5.53
2018-02-01T01:31:05.596Z,5.66
2018-02-01T01:32:05.597Z,5.52
2018-02-01T01:33:05.730Z,5.57
2018-02-01T01:34:05.590Z,5.64
2018-02-01T01:35:05.625Z,5.60
2018-02-01T01:36:05.585Z,5.59
2018-02-01T01:37:05.582Z,5.64
2018-02-01T01:38:05.579Z,5.66
2018-02-01T01:39:05.578Z,5.59
2018-02-01T01:40:05.633Z,5.66
2018-02-01T01:41:05.573Z,5.66
2018-02-01T01:42:05.630Z,5.50
2018-02-01T01:43:05.567Z,5.50
2018-02-01T01:44:05.562Z,5.52
2018-02-01T01:45:05.565Z,5.55
2018-02-01T01:46:05.559Z,5.50
2018-02-01T01:47:05.615Z,5.52
2018-02-01T01:48:05.555Z,5.53
2018-02-01T01:49:05.553Z,5.56
2018-02-01T01:50:05.550Z,5.46
2018-02-01T01:51:05.546Z,5.43
2018-02-01T01:52:05.588Z,5.41
2018-02-01T01:53:05.540Z,5.40
2018-02-01T01:54:05.539Z,5.38
2018-02-01T01:55:05.541Z,5.38
2018-02-01T01:56:05.577Z,5.45
2018-02-01T01:57:05.532Z,5.48
2018-02-01T01:58:05.534Z,5.37
2018-02-01T01:59:05.525Z,5.37
2018-02-01T02:00:05.524Z,5.31
2018-02-01T02:01:05.583Z,5.27
2018-02-01T02:02:05.561Z,5.28
2018-02-01T02:03:05.517Z,5.27
2018-02-01T02:04:05.516Z,5.31
2018-02-01T02:05:05.510Z,5.23
2018-02-01T02:06:05.509Z,5.23
2018-02-01T02:07:05.552Z,5.31
2018-02-01T02:08:05.508Z,5.23
2018-02-01T02:09:05.500Z,5.35
2018-02-01T02:10:06.423Z,5.35
2018-02-01T02:11:05.497Z,5.28
2018-02-01T02:12:05.532Z,5.34
2018-02-01T02:13:05.705Z,5.38
2018-02-01T02:14:05.488Z,5.30
2018-02-01T02:15:05.485Z,5.34
2018-02-01T02:16:05.486Z,5.35
2018-02-01T02:17:05.549Z,5.37
2018-02-01T02:18:05.477Z,5.35
2018-02-01T02:19:05.476Z,5.35
2018-02-01T02:20:05.474Z,5.34
2018-02-01T02:21:05.471Z,5.32
2018-02-01T02:22:05.470Z,5.35
2018-02-01T02:23:06.389Z,5.28
2018-02-01T02:24:05.465Z,5.32
2018-02-01T02:25:05.462Z,5.27
2018-02-01T02:26:05.461Z,5.38
2018-02-01T02:27:05.452Z,5.34
2018-02-01T02:28:05.494Z,5.35
2018-02-01T02:29:05.490Z,5.31
2018-02-01T02:30:05.447Z,5.40
2018-02-01T02:31:05.449Z,5.37
2018-02-01T02:32:05.442Z,5.35
2018-02-01T02:33:05.440Z,5.31
2018-02-01T02:34:05.477Z,5.35
2018-02-01T02:35:05.434Z,5.35
2018-02-01T02:36:05.434Z,5.34
2018-02-01T02:37:05.429Z,5.31
2018-02-01T02:38:05.429Z,5.41
2018-02-01T02:39:05.484Z,5.38
2018-02-01T02:40:05.422Z,5.37
2018-02-01T02:41:05.419Z,5.27
2018-02-01T02:42:05.417Z,5.23
2018-02-01T02:43:05.451Z,5.27
2018-02-01T02:44:05.449Z,5.27
2018-02-01T02:45:05.410Z,5.23
2018-02-01T02:46:05.406Z,5.27
2018-02-01T02:47:05.404Z,5.34
2018-02-01T02:48:05.402Z,5.23
2018-02-01T02:49:05.436Z,5.27
2018-02-01T02:50:05.398Z,5.30
2018-02-01T02:51:05.392Z,5.19
2018-02-01T02:52:05.393Z,5.17
2018-02-01T02:53:05.386Z,5.13
2018-02-01T02:54:05.444Z,5.16
2018-02-01T02:55:05.382Z,5.17
2018-02-01T02:56:05.379Z,5.17
2018-02-01T02:57:05.378Z,5.14
2018-02-01T02:58:05.410Z,5.16
2018-02-01T02:59:05.415Z,5.17
2018-02-01T03:00:05.370Z,5.14
2018-02-01T03:01:05.366Z,5.17
2018-02-01T03:02:05.364Z,5.13
2018-02-01T03:03:05.360Z,5.17
2018-02-01T03:04:05.416Z,5.12
2018-02-01T03:05:05.354Z,5.12
2018-02-01T03:06:05.354Z,5.12
2018-02-01T03:07:05.349Z,5.09
2018-02-01T03:08:05.383Z,5.13
2018-02-01T03:09:05.381Z,4.96
2018-02-01T03:10:05.341Z,4.75
2018-02-01T03:11:05.341Z,4.51
2018-02-01T03:12:05.334Z,4.39
2018-02-01T03:13:05.334Z,3.98
2018-02-01T03:14:05.388Z,3.90
2018-02-01T03:15:05.327Z,3.58
2018-02-01T03:16:05.327Z,3.54
2018-02-01T03:17:05.321Z,3.43
2018-02-01T03:18:05.364Z,3.36
2018-02-01T03:19:05.314Z,3.23
2018-02-01T03:20:05.314Z,3.06
2018-02-01T03:21:05.309Z,3.02
2018-02-01T03:22:05.309Z,3.07
2018-02-01T03:23:05.947Z,2.94
2018-02-01T03:24:05.308Z,2.92
2018-02-01T03:25:05.297Z,2.81
2018-02-01T03:26:05.298Z,2.77
2018-02-01T03:27:05.295Z,2.76
2018-02-01T03:28:05.400Z,2.69
2018-02-01T03:29:05.243Z,2.76
2018-02-01T03:30:08.043Z,2.77
2018-02-01T03:31:05.270Z,2.74
2018-02-01T03:32:05.273Z,2.70
2018-02-01T03:33:05.300Z,2.67
2018-02-01T03:34:05.259Z,2.66
2018-02-01T03:35:05.255Z,2.61
2018-02-01T03:36:05.248Z,2.59
2018-02-01T03:37:05.244Z,2.63
2018-02-01T03:38:05.275Z,2.58
2018-02-01T03:39:05.204Z,2.61
2018-02-01T03:40:08.082Z,2.64
2018-02-01T03:41:05.198Z,2.66
2018-02-01T03:42:05.222Z,2.61
2018-02-01T03:43:16.278Z,2.71
2018-02-01T03:44:05.215Z,2.61
2018-02-01T03:45:05.213Z,2.70
2018-02-01T03:46:05.181Z,2.71
2018-02-01T03:47:05.201Z,2.66
2018-02-01T03:48:05.198Z,2.59
2018-02-01T03:49:05.232Z,2.74
2018-02-01T03:50:05.161Z,2.63
2018-02-01T03:51:05.184Z,2.73
2018-02-01T03:52:05.184Z,2.76
2018-02-01T03:53:05.218Z,2.79
2018-02-01T03:54:05.173Z,2.82
2018-02-01T03:55:05.134Z,2.87
2018-02-01T03:56:05.139Z,3.00
2018-02-01T03:57:05.160Z,3.05
2018-02-01T03:58:05.191Z,3.03
2018-02-01T03:59:05.144Z,3.06
2018-02-01T04:00:05.115Z,3.00
2018-02-01T04:01:05.144Z,3.09
2018-02-01T04:02:05.107Z,3.07
2018-02-01T04:03:05.140Z,3.03
2018-02-01T04:04:05.125Z,3.03
2018-02-01T04:05:20.075Z,2.98
2018-02-01T04:06:07.130Z,3.03
2018-02-01T04:07:05.116Z,2.97
2018-02-01T04:08:05.456Z,2.94
2018-02-01T04:09:05.101Z,2.98
2018-02-01T04:10:05.108Z,2.94
2018-02-01T04:11:05.277Z,2.89
2018-02-01T04:12:05.090Z,2.97
2018-02-01T04:13:05.063Z,2.92
2018-02-01T04:14:26.128Z,2.97
2018-02-01T04:15:05.084Z,2.92
2018-02-01T04:16:05.085Z,2.98
2018-02-01T04:17:19.575Z,2.87
2018-02-01T04:18:26.095Z,2.84
2018-02-01T04:19:05.119Z,2.79
2018-02-01T04:20:05.123Z,2.88
2018-02-01T04:21:05.028Z,2.82
2018-02-01T04:22:05.052Z,2.82
2018-02-01T04:23:05.111Z,2.74
2018-02-01T04:24:05.046Z,2.76
2018-02-01T04:25:05.042Z,2.85
2018-02-01T04:26:05.030Z,2.77
2018-02-01T04:27:05.028Z,2.77
2018-02-01T04:28:19.570Z,2.81
2018-02-01T04:29:05.073Z,2.84
2018-02-01T04:30:19.546Z,2.81
2018-02-01T04:31:04.980Z,2.79
2018-02-01T04:32:04.981Z,2.94
2018-02-01T04:33:12.730Z,2.95
2018-02-01T04:34:12.628Z,2.87
2018-02-01T04:35:19.570Z,2.77
2018-02-01T04:36:04.989Z,2.77
2018-02-01T04:37:04.995Z,2.82
2018-02-01T04:38:04.984Z,2.79
2018-02-01T04:39:06.620Z,2.77
2018-02-01T04:40:19.542Z,2.76
2018-02-01T04:41:04.966Z,2.73
2018-02-01T04:42:04.967Z,2.77
2018-02-01T04:43:04.943Z,2.73
2018-02-01T04:44:04.999Z,2.74
2018-02-01T04:45:04.926Z,2.77
2018-02-01T04:46:04.952Z,2.76
2018-02-01T04:47:04.943Z,2.73
2018-02-01T04:48:11.570Z,2.69
2018-02-01T04:49:04.982Z,2.66
2018-02-01T04:50:04.938Z,2.70
2018-02-01T04:51:40.540Z,2.70
2018-02-01T04:52:04.896Z,2.69
2018-02-01T04:53:55.085Z,2.71
2018-02-01T04:54:04.921Z,2.61
2018-02-01T04:55:04.882Z,2.69
2018-02-01T04:56:04.882Z,2.51
2018-02-01T04:57:19.576Z,2.49
2018-02-01T04:58:04.901Z,2.63
2018-02-01T04:59:05.445Z,2.66
2018-02-01T05:00:04.893Z,2.66
2018-02-01T05:01:04.885Z,2.61
2018-02-01T05:02:04.855Z,2.64
2018-02-01T05:03:04.850Z,2.77
2018-02-01T05:04:04.878Z,2.74
2018-02-01T05:05:04.912Z,2.69
2018-02-01T05:06:04.834Z,2.79
2018-02-01T05:07:04.859Z,2.79
2018-02-01T05:08:04.889Z,2.79
2018-02-01T05:09:04.856Z,2.74
2018-02-01T05:10:04.888Z,2.74
2018-02-01T05:11:04.865Z,2.87
2018-02-01T05:12:04.810Z,2.88
2018-02-01T05:13:04.836Z,2.81
2018-02-01T05:14:04.915Z,2.97
2018-02-01T05:15:04.865Z,2.91
2018-02-01T05:16:05.997Z,2.98
2018-02-01T05:17:25.824Z,2.94
2018-02-01T05:18:04.808Z,2.87
2018-02-01T05:19:04.808Z,2.76
2018-02-01T05:20:04.848Z,2.87
2018-02-01T05:21:04.885Z,2.77
2018-02-01T05:22:19.792Z,2.74
2018-02-01T05:23:04.759Z,2.69
2018-02-01T05:24:04.838Z,2.69
2018-02-01T05:25:04.783Z,2.70
2018-02-01T05:26:04.780Z,2.71
2018-02-01T05:27:04.837Z,2.67
2018-02-01T05:28:19.541Z,2.67
2018-02-01T05:29:04.768Z,2.67
2018-02-01T05:30:05.332Z,2.66
2018-02-01T05:31:06.079Z,2.66
2018-02-01T05:32:04.758Z,2.51
2018-02-01T05:33:04.748Z,2.51
2018-02-01T05:34:04.908Z,2.56
2018-02-01T05:35:04.708Z,2.49
2018-02-01T05:36:04.730Z,2.51
2018-02-01T05:37:04.731Z,2.52
2018-02-01T05:38:04.733Z,2.59
2018-02-01T05:39:04.724Z,2.66
2018-02-01T05:40:04.823Z,2.69
2018-02-01T05:42:37.377Z,2.73
2018-02-01T05:43:37.898Z,2.82
2018-02-01T05:44:58.396Z,2.82
2018-02-01T05:45:37.360Z,2.77
2018-02-01T05:46:37.352Z,2.77
2018-02-01T05:47:37.347Z,2.74
2018-02-01T05:48:37.361Z,2.74
2018-02-01T05:49:37.405Z,2.76
2018-02-01T05:50:37.351Z,2.82
2018-02-01T05:51:37.344Z,2.84
2018-02-01T05:52:37.334Z,2.84
2018-02-01T05:53:37.381Z,2.79
2018-02-01T05:54:37.320Z,2.77
2018-02-01T05:55:37.394Z,2.82
2018-02-01T05:56:37.321Z,2.79
2018-02-01T05:57:37.321Z,2.74
2018-02-01T05:58:37.351Z,2.87
2018-02-01T05:59:37.305Z,2.73
2018-02-01T06:00:37.305Z,2.71
2018-02-01T06:01:37.335Z,2.87
2018-02-01T06:02:37.425Z,2.76
2018-02-01T06:03:37.294Z,2.73
2018-02-01T06:04:37.280Z,2.73
2018-02-01T06:05:37.283Z,2.77
2018-02-01T06:06:37.318Z,2.79
2018-02-01T06:07:37.276Z,2.81
2018-02-01T06:08:37.257Z,2.77
2018-02-01T06:09:37.346Z,2.73
2018-02-01T06:10:37.223Z,2.76
2018-02-01T06:11:39.195Z,2.81
2018-02-01T06:12:37.246Z,2.73
2018-02-01T06:13:37.240Z,2.85
2018-02-01T06:14:37.201Z,2.81
2018-02-01T06:15:43.893Z,2.81
2018-02-01T06:16:37.226Z,2.81
2018-02-01T06:17:37.226Z,2.76
2018-02-01T06:18:37.183Z,2.77
2018-02-01T06:19:37.207Z,2.77
2018-02-01T06:20:37.346Z,2.74
2018-02-01T06:21:37.200Z,2.74
2018-02-01T06:22:37.240Z,2.79
2018-02-01T06:23:37.164Z,2.81
2018-02-01T06:24:37.195Z,2.81
2018-02-01T06:26:00.917Z,2.81
2018-02-01T06:26:37.177Z,2.73
2018-02-01T06:27:37.219Z,2.77
2018-02-01T06:28:37.218Z,2.73
2018-02-01T06:29:37.166Z,2.76
2018-02-01T06:30:37.161Z,2.79
2018-02-01T06:31:37.156Z,2.73
2018-02-01T06:32:37.157Z,2.77
2018-02-01T06:33:37.198Z,2.77
2018-02-01T06:34:37.145Z,2.77
2018-02-01T06:35:37.143Z,2.74
2018-02-01T06:36:37.135Z,2.74
2018-02-01T06:37:37.169Z,2.77
2018-02-01T06:38:37.197Z,2.73
2018-02-01T06:39:37.122Z,2.71
2018-02-01T06:40:37.123Z,2.73
2018-02-01T06:41:37.128Z,2.63
2018-02-01T06:42:37.125Z,2.70
2018-02-01T06:43:37.146Z,2.67
2018-02-01T06:44:37.103Z,2.66
2018-02-01T06:45:37.098Z,2.64
2018-02-01T06:46:37.092Z,2.64
2018-02-01T06:47:37.883Z,2.59
2018-02-01T06:48:37.142Z,2.63
2018-02-01T06:49:37.051Z,2.59
2018-02-01T06:50:37.045Z,2.58
2018-02-01T06:51:37.068Z,2.61
2018-02-01T06:52:37.074Z,2.66
2018-02-01T06:53:37.085Z,2.67
2018-02-01T06:54:37.024Z,2.59
2018-02-01T06:55:37.059Z,2.67
2018-02-01T06:56:37.065Z,2.69
2018-02-01T06:57:37.042Z,2.71
2018-02-01T06:58:37.083Z,2.66
2018-02-01T06:59:37.037Z,2.69
2018-02-01T07:00:37.033Z,2.73
2018-02-01T07:01:37.027Z,2.69
2018-02-01T07:02:37.021Z,2.71
2018-02-01T07:03:37.061Z,2.67
2018-02-01T07:04:37.016Z,2.67
2018-02-01T07:05:37.012Z,2.71
2018-02-01T07:06:37.002Z,2.71
2018-02-01T07:07:37.000Z,2.64
2018-02-01T07:08:37.032Z,2.71
2018-02-01T07:09:36.993Z,2.64
2018-02-01T07:10:36.987Z,2.69
2018-02-01T07:11:37.881Z,2.69
2018-02-01T07:12:36.978Z,2.71
2018-02-01T07:13:37.025Z,2.69
2018-02-01T07:14:36.971Z,2.71
2018-02-01T07:15:36.965Z,2.67
2018-02-01T07:16:36.959Z,2.67
2018-02-01T07:17:37.000Z,2.64
2018-02-01T07:18:37.924Z,2.71
2018-02-01T07:19:36.994Z,2.69
2018-02-01T07:20:36.945Z,2.67
2018-02-01T07:21:36.940Z,2.71
2018-02-01T07:22:36.975Z,2.69
2018-02-01T07:23:36.932Z,2.71
2018-02-01T07:24:36.930Z,2.64
2018-02-01T07:25:36.968Z,2.67
2018-02-01T07:26:36.916Z,2.67
2018-02-01T07:27:36.957Z,2.70
2018-02-01T07:28:36.908Z,2.70
2018-02-01T07:29:36.904Z,2.59
2018-02-01T07:30:36.943Z,2.70
2018-02-01T07:31:36.943Z,2.73
2018-02-01T07:32:36.901Z,2.69
2018-02-01T07:33:36.887Z,2.76
2018-02-01T07:34:36.883Z,2.71
2018-02-01T07:35:36.916Z,2.81
2018-02-01T07:36:36.872Z,2.73
2018-02-01T07:37:36.874Z,2.79
2018-02-01T07:38:36.864Z,2.76
2018-02-01T07:39:36.861Z,2.69
2018-02-01T07:40:36.906Z,2.73
2018-02-01T07:41:36.852Z,2.73
2018-02-01T07:42:36.884Z,2.71
2018-02-01T07:43:36.844Z,2.74
2018-02-01T07:44:36.838Z,2.77
2018-02-01T07:45:36.836Z,2.77
2018-02-01T07:46:36.874Z,2.81
2018-02-01T07:47:36.825Z,2.91
2018-02-01T07:48:36.822Z,2.92
2018-02-01T07:49:36.820Z,2.88
2018-02-01T07:50:36.814Z,2.87
2018-02-01T07:51:36.851Z,2.95
2018-02-01T07:52:36.806Z,2.85
2018-02-01T07:53:36.804Z,2.88
2018-02-01T07:54:36.798Z,2.92
2018-02-01T07:55:36.793Z,3.00
2018-02-01T07:56:36.832Z,3.02
2018-02-01T07:57:36.786Z,3.02
2018-02-01T07:58:36.858Z,3.03
2018-02-01T07:59:36.777Z,3.00
2018-02-01T08:00:36.773Z,3.02
2018-02-01T08:01:36.817Z,3.16
2018-02-01T08:02:36.766Z,3.20
2018-02-01T08:03:36.763Z,3.18
2018-02-01T08:04:36.813Z,3.24
2018-02-01T08:05:36.754Z,3.23
2018-02-01T08:06:36.797Z,3.15
2018-02-01T08:07:36.781Z,3.12
2018-02-01T08:08:36.743Z,3.24
2018-02-01T08:09:36.737Z,3.27
2018-02-01T08:10:36.733Z,3.31
2018-02-01T08:11:36.730Z,3.30
2018-02-01T08:12:36.764Z,3.31
2018-02-01T08:13:36.724Z,3.27
2018-02-01T08:14:36.721Z,3.30
2018-02-01T08:15:36.719Z,3.24
2018-02-01T08:16:36.725Z,3.12
2018-02-01T08:17:36.752Z,3.31
2018-02-01T08:18:36.706Z,3.27
2018-02-01T08:19:36.702Z,3.31
2018-02-01T08:20:36.700Z,3.31
2018-02-01T08:21:36.739Z,3.27
2018-02-01T08:22:36.685Z,3.42
2018-02-01T08:23:36.685Z,3.39
2018-02-01T08:24:36.681Z,3.44
2018-02-01T08:25:36.677Z,3.53
2018-02-01T08:26:36.717Z,3.52
2018-02-01T08:27:36.719Z,3.67
2018-02-01T08:28:36.667Z,3.76
2018-02-01T08:29:36.664Z,3.68
2018-02-01T08:30:36.658Z,3.83
2018-02-01T08:31:36.693Z,3.76
2018-02-01T08:32:36.701Z,3.82
2018-02-01T08:33:36.650Z,3.79
2018-02-01T08:34:36.646Z,3.76
2018-02-01T08:35:36.638Z,3.80
2018-02-01T08:36:36.680Z,3.83
2018-02-01T08:37:36.635Z,3.92
2018-02-01T08:38:36.833Z,4.07
2018-02-01T08:39:36.634Z,4.16
2018-02-01T08:40:36.629Z,4.12
2018-02-01T08:41:36.623Z,4.16
2018-02-01T08:42:36.619Z,4.15
2018-02-01T08:43:36.657Z,3.88
2018-02-01T08:44:36.614Z,3.92
2018-02-01T08:45:36.614Z,4.01
2018-02-01T08:46:36.610Z,4.03
2018-02-01T08:47:36.605Z,4.07
2018-02-01T08:48:36.645Z,4.12
2018-02-01T08:49:36.601Z,4.21
2018-02-01T08:50:36.597Z,4.22
2018-02-01T08:51:36.597Z,4.18
2018-02-01T08:52:36.592Z,4.25
2018-02-01T08:53:36.626Z,4.18
2018-02-01T08:54:36.588Z,4.03
2018-02-01T08:55:36.592Z,4.06
2018-02-01T08:56:36.582Z,4.14
2018-02-01T08:57:36.579Z,4.14
2018-02-01T08:58:36.620Z,4.12
2018-02-01T08:59:36.573Z,4.16
2018-02-01T09:00:36.573Z,4.15
2018-02-01T09:01:36.584Z,4.21
2018-02-01T09:02:36.609Z,4.12
2018-02-01T09:03:36.567Z,4.07
2018-02-01T09:04:36.570Z,4.06
2018-02-01T09:05:36.557Z,4.18
2018-02-01T09:06:36.559Z,4.21
2018-02-01T09:07:36.596Z,4.29
2018-02-01T09:08:36.556Z,4.15
2018-02-01T09:09:36.551Z,4.04
2018-02-01T09:10:36.546Z,4.24
2018-02-01T09:11:36.546Z,4.32
2018-02-01T09:12:36.582Z,4.26
2018-02-01T09:13:36.541Z,4.29
2018-02-01T09:14:36.540Z,4.25
2018-02-01T09:15:36.538Z,4.28
2018-02-01T09:16:36.535Z,4.40
2018-02-01T09:17:36.571Z,4.43
2018-02-01T09:18:36.657Z,4.61
2018-02-01T09:19:36.526Z,4.61
2018-02-01T09:20:36.528Z,4.59
2018-02-01T09:21:36.523Z,4.69
2018-02-01T09:22:36.564Z,4.80
2018-02-01T09:23:36.521Z,4.83
2018-02-01T09:24:36.528Z,4.84
2018-02-01T09:25:36.517Z,4.94
2018-02-01T09:26:36.515Z,4.96
2018-02-01T09:27:36.553Z,4.75
2018-02-01T09:28:36.511Z,4.62
2018-02-01T09:29:36.554Z,4.64
2018-02-01T09:30:36.508Z,4.47
2018-02-01T09:31:36.508Z,4.46
2018-02-01T09:32:36.546Z,4.64
2018-02-01T09:33:36.503Z,4.76
2018-02-01T09:34:36.501Z,4.96
2018-02-01T09:35:36.496Z,4.92
2018-02-01T09:36:36.499Z,4.70
2018-02-01T09:37:36.536Z,4.72
2018-02-01T09:38:36.494Z,4.59
2018-02-01T09:39:36.491Z,4.46
2018-02-01T09:40:36.496Z,4.61
2018-02-01T09:41:36.489Z,4.33
2018-02-01T09:42:36.533Z,4.54
2018-02-01T09:43:36.484Z,4.54
2018-02-01T09:44:36.486Z,4.57
2018-02-01T09:45:36.520Z,4.55
2018-02-01T09:46:36.482Z,4.50
2018-02-01T09:47:36.478Z,4.43
2018-02-01T09:48:36.515Z,4.57
2018-02-01T09:49:36.475Z,4.59
2018-02-01T09:50:36.472Z,4.70
2018-02-01T09:51:36.471Z,4.72
2018-02-01T09:52:36.472Z,4.70
2018-02-01T09:53:36.507Z,4.54
2018-02-01T09:54:36.467Z,4.61
2018-02-01T09:55:36.462Z,4.69
2018-02-01T09:56:36.460Z,4.70
2018-02-01T09:57:36.507Z,4.75
2018-02-01T09:58:38.577Z,4.72
2018-02-01T09:59:37.238Z,4.69
2018-02-01T10:00:36.496Z,4.65
2018-02-01T10:01:36.449Z,4.55
2018-02-01T10:02:37.204Z,4.51
2018-02-01T10:03:36.445Z,4.37
2018-02-01T10:04:36.443Z,4.40
2018-02-01T10:05:36.483Z,4.46
2018-02-01T10:06:36.438Z,4.50
2018-02-01T10:07:36.434Z,4.47
2018-02-01T10:08:36.472Z,4.52
2018-02-01T10:09:36.431Z,4.42
2018-02-01T10:10:36.429Z,4.55
2018-02-01T10:11:36.423Z,4.54
2018-02-01T10:12:36.480Z,4.40
2018-02-01T10:13:36.469Z,4.42
2018-02-01T10:14:36.417Z,4.44
2018-02-01T10:15:36.844Z,4.52
2018-02-01T10:16:36.413Z,4.51
2018-02-01T10:17:36.410Z,4.44
2018-02-01T10:18:37.102Z,4.46
2018-02-01T10:19:36.452Z,4.47
2018-02-01T10:20:36.406Z,4.40
2018-02-01T10:21:36.403Z,4.50
2018-02-01T10:22:36.397Z,4.43
2018-02-01T10:23:42.888Z,4.50
2018-02-01T10:24:36.434Z,4.59
2018-02-01T10:25:36.392Z,4.54
2018-02-01T10:26:36.386Z,4.58
2018-02-01T10:27:36.384Z,4.54
2018-02-01T10:28:36.383Z,4.62
2018-02-01T10:29:36.424Z,4.65
2018-02-01T10:30:36.375Z,4.58
2018-02-01T10:31:36.371Z,4.62
2018-02-01T10:32:36.371Z,4.69
2018-02-01T10:33:36.367Z,4.64
2018-02-01T10:34:36.406Z,4.67
2018-02-01T10:35:36.362Z,4.59
2018-02-01T10:36:36.360Z,4.59
2018-02-01T10:37:36.359Z,4.77
2018-02-01T10:38:36.350Z,4.84
2018-02-01T10:39:36.401Z,4.84
2018-02-01T10:40:36.347Z,4.88
2018-02-01T10:41:36.345Z,4.86
2018-02-01T10:42:36.342Z,4.89
2018-02-01T10:43:36.339Z,4.91
2018-02-01T10:44:36.375Z,4.96
2018-02-01T10:45:36.334Z,4.99
2018-02-01T10:46:36.332Z,4.96
2018-02-01T10:47:36.329Z,4.94
2018-02-01T10:48:36.333Z,4.96
2018-02-01T10:49:36.374Z,4.91
2018-02-01T10:50:36.324Z,4.94
2018-02-01T10:51:36.316Z,4.98
2018-02-01T10:52:36.318Z,4.91
2018-02-01T10:53:36.319Z,4.99
2018-02-01T10:54:36.351Z,4.92
2018-02-01T10:55:36.355Z,4.91
2018-02-01T10:56:36.310Z,4.96
2018-02-01T10:57:36.302Z,4.95
2018-02-01T10:58:36.299Z,4.94
2018-02-01T10:59:36.346Z,4.94
2018-02-01T11:00:36.340Z,4.98
2018-02-01T11:01:36.295Z,4.98
2018-02-01T11:02:36.291Z,5.09
2018-02-01T11:03:36.290Z,5.10
2018-02-01T11:04:36.286Z,5.10
2018-02-01T11:05:36.334Z,5.13
2018-02-01T11:06:36.283Z,5.16
2018-02-01T11:07:36.280Z,5.34
2018-02-01T11:08:36.318Z,5.52
2018-02-01T11:09:36.278Z,5.59
2018-02-01T11:10:36.319Z,5.55
2018-02-01T11:11:36.275Z,5.71
2018-02-01T11:12:36.272Z,5.74
2018-02-01T11:13:36.268Z,5.71
2018-02-01T11:14:36.270Z,5.63
2018-02-01T11:15:36.305Z,5.63
2018-02-01T11:16:36.264Z,5.53
2018-02-01T11:17:36.263Z,5.59
2018-02-01T11:18:36.270Z,5.66
2018-02-01T11:19:36.262Z,5.71
2018-02-01T11:20:36.297Z,5.86
2018-02-01T11:21:36.260Z,5.86
2018-02-01T11:22:36.256Z,5.92
2018-02-01T11:23:36.256Z,6.01
2018-02-01T11:24:36.255Z,5.96
2018-02-01T11:25:36.293Z,6.01
2018-02-01T11:26:36.253Z,6.09
2018-02-01T11:27:36.254Z,6.18
2018-02-01T11:28:36.258Z,6.18
2018-02-01T11:29:36.255Z,5.75
2018-02-01T11:30:36.299Z,5.71
2018-02-01T11:31:36.253Z,5.64
2018-02-01T11:32:36.250Z,5.63
2018-02-01T11:33:36.288Z,5.55
2018-02-01T11:34:36.247Z,5.38
2018-02-01T11:35:36.248Z,5.41
2018-02-01T11:36:36.289Z,5.38
2018-02-01T11:37:36.247Z,5.30
2018-02-01T11:38:36.244Z,5.38
2018-02-01T11:39:36.248Z,5.43
2018-02-01T11:40:36.246Z,5.34
2018-02-01T11:41:36.282Z,5.40
2018-02-01T11:42:36.238Z,5.22
2018-02-01T11:43:36.238Z,5.34
2018-02-01T11:44:36.239Z,5.38
2018-02-01T11:45:36.236Z,5.37
2018-02-01T11:46:36.273Z,5.38
2018-02-01T11:47:36.234Z,5.46
2018-02-01T11:48:36.234Z,5.46
2018-02-01T11:49:36.230Z,5.48
2018-02-01T11:50:36.230Z,5.60
2018-02-01T11:51:36.274Z,5.67
2018-02-01T11:52:36.273Z,5.60
2018-02-01T11:53:36.225Z,5.52
2018-02-01T11:54:36.226Z,5.56
2018-02-01T11:55:36.220Z,5.60
2018-02-01T11:56:36.221Z,5.53
2018-02-01T11:57:36.254Z,5.48
2018-02-01T11:58:36.217Z,5.48
2018-02-01T11:59:36.215Z,5.52
2018-02-01T12:00:36.215Z,5.48
2018-02-01T12:01:36.215Z,5.66
2018-02-01T12:02:36.259Z,5.53
2018-02-01T12:03:36.210Z,5.45
2018-02-01T12:04:36.208Z,5.48
2018-02-01T12:05:36.207Z,5.55
2018-02-01T12:06:36.204Z,5.71
2018-02-01T12:07:36.252Z,5.77
2018-02-01T12:08:36.861Z,6.01
2018-02-01T12:09:36.920Z,6.32
2018-02-01T12:10:36.198Z,6.54
2018-02-01T12:11:36.206Z,6.53
2018-02-01T12:12:36.244Z,6.44
2018-02-01T12:13:36.196Z,6.41
2018-02-01T12:14:36.194Z,6.40
2018-02-01T12:15:36.198Z,6.33
2018-02-01T12:16:36.192Z,6.35
2018-02-01T12:17:36.232Z,6.51
2018-02-01T12:18:36.234Z,6.38
2018-02-01T12:19:36.194Z,6.32
2018-02-01T12:20:36.190Z,6.06
2018-02-01T12:21:36.190Z,5.98
2018-02-01T12:22:36.189Z,5.78
2018-02-01T12:23:36.229Z,5.77
2018-02-01T12:24:36.188Z,5.75
2018-02-01T12:25:36.192Z,5.71
2018-02-01T12:26:37.132Z,5.66
2018-02-01T12:27:36.185Z,5.56
2018-02-01T12:28:36.227Z,5.73
2018-02-01T12:29:36.362Z,5.67
2018-02-01T12:30:36.182Z,5.57
2018-02-01T12:31:36.182Z,5.59
2018-02-01T12:32:36.181Z,5.57
2018-02-01T12:33:36.226Z,5.59
2018-02-01T12:34:36.178Z,5.57
2018-02-01T12:35:36.178Z,5.64
2018-02-01T12:36:36.177Z,5.56
2018-02-01T12:37:36.226Z,5.57
2018-02-01T12:38:36.174Z,5.50
2018-02-01T12:39:36.173Z,5.55
2018-02-01T12:40:36.175Z,5.50
2018-02-01T12:41:36.171Z,5.59
2018-02-01T12:42:36.211Z,5.63
2018-02-01T12:43:36.168Z,5.55
2018-02-01T12:44:36.165Z,5.40
2018-02-01T12:45:36.162Z,5.32
2018-02-01T12:46:36.163Z,5.35
2018-02-01T12:47:36.197Z,5.35
2018-02-01T12:48:36.164Z,5.27
2018-02-01T12:49:36.157Z,5.32
2018-02-01T12:50:36.155Z,5.31
2018-02-01T12:51:36.156Z,5.31
2018-02-01T12:52:36.190Z,5.34
2018-02-01T12:53:36.152Z,5.27
2018-02-01T12:54:36.147Z,5.19
2018-02-01T12:55:36.688Z,5.30
2018-02-01T12:56:36.147Z,5.22
2018-02-01T12:57:36.196Z,5.14
2018-02-01T12:58:36.137Z,5.10
2018-02-01T12:59:36.138Z,5.19
2018-02-01T13:00:36.135Z,5.16
2018-02-01T13:01:36.183Z,5.14
2018-02-01T13:02:36.130Z,5.12
2018-02-01T13:03:36.130Z,5.16
2018-02-01T13:04:36.127Z,5.13
2018-02-01T13:05:36.124Z,5.10
2018-02-01T13:06:36.172Z,5.05
2018-02-01T13:07:36.122Z,4.98
2018-02-01T13:08:36.120Z,4.92
2018-02-01T13:09:36.115Z,5.02
2018-02-01T13:10:36.116Z,5.01
2018-02-01T13:11:36.157Z,5.10
2018-02-01T13:12:36.155Z,5.12
2018-02-01T13:13:36.118Z,4.94
2018-02-01T13:14:36.142Z,5.09
2018-02-01T13:15:36.103Z,4.99
2018-02-01T13:16:36.101Z,5.01
2018-02-01T13:17:36.097Z,4.91
2018-02-01T13:18:36.095Z,4.94
2018-02-01T13:19:36.152Z,4.96